Terminal Aerodrome Forecast
Issued by NWS

Current Version | Previous Version | Graphics & Text | Print | Product List | Glossary On
Versions: 1 2 3 4 5 6 7 8 9 10 11 12 13 14 15 16 17 18 19 20 21 22 23 24 25 26 27 28 29 30 31
000
FTUS41 KILN 211000 AAC
TAFLCK
TAF AMD
KLCK 211004Z 2110/2206 05003KT 2SM BR SKC
      TEMPO 2110/2113 1SM BR
     FM211300 VRB03KT P6SM SCT025
     FM211600 09006KT P6SM SCT035
     FM220100 VRB03KT P6SM SKC=

USA.gov is the U.S. government's official web portal to all federal, state and local government web resources and services.